Time;durP1;ratioP1;P1;durP2;ratioP2;P2;SDS_P1;SDS_P2;PMS_P1;PMS_P2;Temp;Humidity;BMP_temperature;BMP_pressure;BME280_temperature;BME280_humidity;BME280_pressure;Samples;Min_cycle;Max_cycle;Signal;HPM_P1;HPM_P2
2022/09/24 00:01:31;;;;;;;11.90;7.27;;;;;;;;;;6223976;23;20429;-91
2022/09/24 00:03:59;;;;;;;7.60;7.10;;;;;;;;;;6227911;23;20393;-91
2022/09/24 00:06:26;;;;;;;10.27;7.37;;;;;;;;;;6228955;23;20948;-91
2022/09/24 00:08:54;;;;;;;10.30;8.87;;;;;;;;;;6224444;23;20408;-91
2022/09/24 00:11:20;;;;;;;8.47;7.33;;;;;;;;;;6226514;23;20385;-91
2022/09/24 00:13:47;;;;;;;11.60;8.83;;;;;;;;;;6225312;23;20928;-91
2022/09/24 00:16:16;;;;;;;7.10;6.70;;;;;;;;;;6225840;23;20402;-91
2022/09/24 00:18:44;;;;;;;8.63;7.37;;;;;;;;;;6229004;23;20453;-91
2022/09/24 00:21:20;;;;;;;8.67;6.63;;;;;;;;;;6229079;23;20451;-92
2022/09/24 00:23:54;;;;;;;7.20;6.70;;;;;;;;;;6259641;23;20361;-91
2022/09/24 00:29:11;;;;;;;7.13;6.43;;;;;;;;;;6260580;23;20373;-91
2022/09/24 00:31:49;;;;;;;8.00;7.20;;;;;;;;;;6234903;23;20415;-91
2022/09/24 00:34:18;;;;;;;7.33;6.73;;;;;;;;;;6245574;22;20429;-90
2022/09/24 00:36:47;;;;;;;8.17;6.80;;;;;;;;;;6242340;23;20398;-92
2022/09/24 00:39:16;;;;;;;7.67;7.23;;;;;;;;;;6230910;23;20408;-91
2022/09/24 00:42:01;;;;;;;;;;;;;;;;;;;;;
2022/09/24 00:44:47;;;;;;;6.93;6.63;;;;;;;;;;6236119;23;20442;-91
2022/09/24 00:47:28;;;;;;;7.20;6.80;;;;;;;;;;6201303;23;20370;-90
2022/09/24 00:50:16;;;;;;;8.23;7.63;;;;;;;;;;6198702;23;20454;-91
2022/09/24 00:52:51;;;;;;;7.03;6.43;;;;;;;;;;6199394;23;20366;-91
2022/09/24 00:55:18;;;;;;;7.37;6.97;;;;;;;;;;6226711;23;20413;-91
2022/09/24 00:57:45;;;;;;;6.90;6.40;;;;;;;;;;6225285;23;20404;-91
2022/09/24 01:00:14;;;;;;;7.27;6.87;;;;;;;;;;6225310;23;20402;-91
2022/09/24 01:02:47;;;;;;;7.47;7.07;;;;;;;;;;6225613;23;20400;-92
2022/09/24 01:05:16;;;;;;;7.03;6.40;;;;;;;;;;6227109;23;20392;-91
2022/09/24 01:07:48;;;;;;;8.10;7.60;;;;;;;;;;6256151;23;20915;-91
2022/09/24 01:10:46;;;;;;;9.10;8.40;;;;;;;;;;6228606;23;20412;-92
2022/09/24 01:13:16;;;;;;;7.70;7.30;;;;;;;;;;6254896;23;20568;-92
2022/09/24 01:16:11;;;;;;;8.77;7.67;;;;;;;;;;6228274;23;20759;-92
2022/09/24 01:18:46;;;;;;;7.40;6.83;;;;;;;;;;6226466;23;20385;-91
2022/09/24 01:21:18;;;;;;;8.10;7.50;;;;;;;;;;6226440;23;20377;-91
2022/09/24 01:23:58;;;;;;;7.63;7.03;;;;;;;;;;6228338;23;20385;-92
2022/09/24 01:26:46;;;;;;;7.63;7.03;;;;;;;;;;6228024;23;20361;-91
2022/09/24 01:29:42;;;;;;;7.37;6.97;;;;;;;;;;6228054;23;20366;-91
2022/09/24 01:32:11;;;;;;;8.00;7.50;;;;;;;;;;6247264;22;20921;-88
2022/09/24 01:34:41;;;;;;;9.07;8.07;;;;;;;;;;6212315;23;20437;-90
2022/09/24 01:37:43;;;;;;;8.00;7.37;;;;;;;;;;6215545;23;20476;-90
2022/09/24 01:43:08;;;;;;;7.60;7.10;;;;;;;;;;6240743;22;20820;-90
2022/09/24 01:45:53;;;;;;;7.43;6.97;;;;;;;;;;6213109;23;20402;-88
2022/09/24 01:48:53;;;;;;;9.03;7.63;;;;;;;;;;6215260;23;20447;-90
2022/09/24 01:51:22;;;;;;;9.20;7.40;;;;;;;;;;6213063;23;20398;-90
2022/09/24 01:53:56;;;;;;;9.10;7.73;;;;;;;;;;6214942;23;20491;-88
2022/09/24 01:56:43;;;;;;;8.50;7.63;;;;;;;;;;6214629;23;20395;-89
2022/09/24 01:59:12;;;;;;;9.80;7.50;;;;;;;;;;6243004;23;20440;-89
2022/09/24 02:04:25;;;;;;;12.37;8.27;;;;;;;;;;6240030;23;20455;-88
2022/09/24 02:06:56;;;;;;;9.13;8.23;;;;;;;;;;6215736;23;20492;-89
2022/09/24 02:09:32;;;;;;;10.37;9.33;;;;;;;;;;6218231;23;20441;-91
2022/09/24 02:12:18;;;;;;;8.93;8.23;;;;;;;;;;6234367;23;20789;-90
2022/09/24 02:14:48;;;;;;;9.43;8.73;;;;;;;;;;6206800;23;20538;-90
2022/09/24 02:17:17;;;;;;;8.63;8.00;;;;;;;;;;6231053;23;20385;-91
2022/09/24 02:20:20;;;;;;;;;;;;;;;;;;;;;
2022/09/24 02:23:06;;;;;;;8.50;8.00;;;;;;;;;;6236442;22;20400;-91
2022/09/24 02:25:40;;;;;;;9.57;8.77;;;;;;;;;;6237393;23;20692;-91
2022/09/24 02:28:07;;;;;;;9.90;8.50;;;;;;;;;;6232215;23;20453;-90
2022/09/24 02:30:39;;;;;;;9.30;8.50;;;;;;;;;;6229790;23;20404;-91
2022/09/24 02:34:19;;;;;;;9.30;8.67;;;;;;;;;;6228983;23;20397;-91
2022/09/24 02:35:56;;;;;;;13.00;8.27;;;;;;;;;;6254638;23;20417;-93
2022/09/24 02:38:28;;;;;;;9.30;8.60;;;;;;;;;;6230245;23;20372;-90
2022/09/24 02:41:06;;;;;;;9.53;8.83;;;;;;;;;;6232072;23;20398;-92
2022/09/24 02:43:37;;;;;;;10.60;9.53;;;;;;;;;;6235129;23;20464;-92
2022/09/24 02:46:05;;;;;;;11.30;10.30;;;;;;;;;;6235733;23;20365;-89
2022/09/24 02:48:31;;;;;;;11.20;10.30;;;;;;;;;;6247198;22;20476;-92
2022/09/24 02:51:00;;;;;;;11.80;10.80;;;;;;;;;;6246512;22;20405;-89
2022/09/24 02:53:27;;;;;;;11.83;10.93;;;;;;;;;;6246017;22;20398;-91
2022/09/24 02:55:53;;;;;;;12.10;10.90;;;;;;;;;;6246389;22;20428;-91
2022/09/24 02:58:24;;;;;;;11.50;10.70;;;;;;;;;;6242768;23;20410;-91
2022/09/24 03:00:50;;;;;;;11.90;10.80;;;;;;;;;;6220834;23;20975;-92
2022/09/24 03:03:16;;;;;;;17.27;11.37;;;;;;;;;;6227139;23;20439;-91
2022/09/24 03:05:43;;;;;;;12.03;10.13;;;;;;;;;;6227538;23;20385;-90
2022/09/24 03:08:09;;;;;;;13.17;11.53;;;;;;;;;;6228001;23;20377;-89
2022/09/24 03:10:38;;;;;;;11.73;10.57;;;;;;;;;;6224255;23;20389;-91
2022/09/24 03:13:05;;;;;;;10.17;9.27;;;;;;;;;;6226793;23;20948;-90
2022/09/24 03:15:34;;;;;;;10.30;9.60;;;;;;;;;;6227616;23;20433;-91
2022/09/24 03:18:01;;;;;;;10.20;8.90;;;;;;;;;;6228743;23;20382;-91
2022/09/24 03:20:27;;;;;;;8.80;8.07;;;;;;;;;;6231730;23;20385;-92
2022/09/24 03:22:53;;;;;;;9.10;8.40;;;;;;;;;;6231906;23;20464;-92
2022/09/24 03:25:21;;;;;;;8.47;7.87;;;;;;;;;;6229277;23;20385;-91
2022/09/24 03:27:47;;;;;;;9.00;8.20;;;;;;;;;;6230166;23;20464;-92
2022/09/24 03:32:58;;;;;;;9.63;8.67;;;;;;;;;;6256199;23;20370;-91
2022/09/24 03:35:27;;;;;;;11.20;9.10;;;;;;;;;;6259464;22;20420;-90
2022/09/24 03:37:55;;;;;;;9.90;9.10;;;;;;;;;;6259464;22;20373;-90
2022/09/24 03:40:24;;;;;;;10.40;9.63;;;;;;;;;;6259387;22;20396;-91
2022/09/24 03:42:50;;;;;;;12.77;9.83;;;;;;;;;;6258819;22;20385;-90
2022/09/24 03:45:18;;;;;;;13.33;10.80;;;;;;;;;;6257681;22;20384;-91
2022/09/24 03:47:48;;;;;;;11.83;10.57;;;;;;;;;;6286512;22;20380;-91
2022/09/24 03:50:17;;;;;;;11.83;10.73;;;;;;;;;;6260567;22;20919;-91
2022/09/24 03:52:45;;;;;;;15.23;11.77;;;;;;;;;;6259209;22;20678;-91
2022/09/24 03:55:24;;;;;;;12.20;11.03;;;;;;;;;;6286160;22;20747;-91
2022/09/24 03:57:50;;;;;;;11.27;10.00;;;;;;;;;;6259831;22;20376;-91
2022/09/24 04:00:19;;;;;;;13.10;11.90;;;;;;;;;;6257283;22;20776;-90
2022/09/24 04:02:50;;;;;;;12.13;10.93;;;;;;;;;;6254060;22;20413;-91
2022/09/24 04:05:16;;;;;;;12.30;11.10;;;;;;;;;;6260101;22;20404;-92
2022/09/24 04:07:46;;;;;;;16.10;11.20;;;;;;;;;;6288941;22;20373;-91
2022/09/24 04:10:12;;;;;;;13.30;11.00;;;;;;;;;;6261139;22;20410;-91
2022/09/24 04:12:44;;;;;;;11.77;10.73;;;;;;;;;;6263193;22;20376;-91
2022/09/24 04:15:28;;;;;;;13.80;12.00;;;;;;;;;;6261615;22;20420;-92
2022/09/24 04:17:56;;;;;;;12.23;11.20;;;;;;;;;;6289117;22;20396;-91
2022/09/24 04:20:23;;;;;;;12.50;11.17;;;;;;;;;;6260973;22;20389;-91
2022/09/24 04:23:00;;;;;;;11.73;10.70;;;;;;;;;;6263363;22;20396;-91
2022/09/24 04:25:29;;;;;;;12.80;11.70;;;;;;;;;;6264667;22;20388;-92
2022/09/24 04:28:00;;;;;;;12.37;11.30;;;;;;;;;;6262981;22;20415;-92
2022/09/24 04:30:29;;;;;;;11.73;10.10;;;;;;;;;;6260927;22;20785;-92
2022/09/24 04:32:55;;;;;;;13.40;12.30;;;;;;;;;;6261398;22;20385;-91
2022/09/24 04:35:22;;;;;;;12.63;11.53;;;;;;;;;;6263781;22;20420;-92
2022/09/24 04:37:48;;;;;;;13.30;11.90;;;;;;;;;;6263386;22;20458;-91
2022/09/24 04:40:15;;;;;;;14.93;12.70;;;;;;;;;;6262384;22;20856;-90
2022/09/24 04:42:42;;;;;;;13.47;12.37;;;;;;;;;;6266227;22;20405;-91
2022/09/24 04:45:09;;;;;;;15.17;13.30;;;;;;;;;;6273784;22;20437;-92
2022/09/24 04:47:35;;;;;;;14.77;13.37;;;;;;;;;;6275736;22;20392;-92
2022/09/24 04:50:04;;;;;;;13.23;12.13;;;;;;;;;;6272505;22;20385;-91
2022/09/24 04:52:33;;;;;;;14.63;13.30;;;;;;;;;;6268106;22;20384;-91
2022/09/24 04:55:00;;;;;;;13.97;12.77;;;;;;;;;;6261498;22;20994;-90
2022/09/24 04:57:27;;;;;;;14.17;12.77;;;;;;;;;;6263569;22;20376;-91
2022/09/24 05:00:01;;;;;;;14.47;12.97;;;;;;;;;;6260827;22;20388;-91
2022/09/24 05:02:27;;;;;;;14.13;12.83;;;;;;;;;;6256558;22;20438;-90
2022/09/24 05:04:55;;;;;;;12.23;11.13;;;;;;;;;;6260756;22;20769;-91
2022/09/24 05:07:24;;;;;;;13.80;12.53;;;;;;;;;;6287912;22;20871;-92
2022/09/24 05:09:50;;;;;;;15.43;11.33;;;;;;;;;;6259123;22;20389;-92
2022/09/24 05:12:18;;;;;;;13.77;12.57;;;;;;;;;;6262753;22;20361;-91
2022/09/24 05:14:47;;;;;;;14.40;12.60;;;;;;;;;;6265302;22;20442;-91
2022/09/24 05:17:16;;;;;;;15.13;13.30;;;;;;;;;;6274095;22;20388;-92
2022/09/24 05:19:42;;;;;;;16.23;14.77;;;;;;;;;;6275158;22;20496;-92
2022/09/24 05:22:08;;;;;;;14.73;13.43;;;;;;;;;;6258124;22;20385;-91
2022/09/24 05:24:34;;;;;;;15.20;13.93;;;;;;;;;;6286165;22;20399;-90
2022/09/24 05:27:09;;;;;;;13.10;11.90;;;;;;;;;;6256561;22;20861;-90
2022/09/24 05:29:36;;;;;;;13.60;12.50;;;;;;;;;;6257507;22;20369;-90
2022/09/24 05:32:04;;;;;;;15.07;13.57;;;;;;;;;;6259515;22;20392;-91
2022/09/24 05:34:30;;;;;;;13.07;11.97;;;;;;;;;;6263855;22;20412;-91
2022/09/24 05:36:57;;;;;;;15.73;14.30;;;;;;;;;;6288058;22;20662;-89
2022/09/24 05:39:23;;;;;;;16.47;15.10;;;;;;;;;;6262328;22;20817;-90
2022/09/24 05:41:51;;;;;;;16.53;15.17;;;;;;;;;;6259745;22;20430;-91
2022/09/24 05:44:20;;;;;;;14.50;13.30;;;;;;;;;;6257611;22;20844;-91
2022/09/24 05:46:50;;;;;;;14.97;13.77;;;;;;;;;;6256239;22;20420;-90
2022/09/24 05:49:16;;;;;;;15.47;14.00;;;;;;;;;;6258677;22;20489;-92
2022/09/24 05:51:43;;;;;;;15.27;13.77;;;;;;;;;;6256923;22;20568;-90
2022/09/24 05:54:10;;;;;;;16.57;14.90;;;;;;;;;;6257320;22;20421;-91
2022/09/24 05:56:36;;;;;;;16.07;14.47;;;;;;;;;;6282120;22;20385;-91
2022/09/24 05:59:02;;;;;;;15.20;13.77;;;;;;;;;;6254740;22;20384;-91
2022/09/24 06:01:31;;;;;;;14.70;13.50;;;;;;;;;;6248448;22;20418;-90
2022/09/24 06:03:58;;;;;;;14.43;13.03;;;;;;;;;;6255372;22;20420;-91
2022/09/24 06:06:24;;;;;;;15.27;13.97;;;;;;;;;;6255706;22;20380;-92
2022/09/24 06:08:51;;;;;;;15.73;13.97;;;;;;;;;;6258955;22;20868;-92
2022/09/24 06:11:17;;;;;;;15.83;14.03;;;;;;;;;;6247717;22;20400;-90
2022/09/24 06:13:43;;;;;;;17.20;15.50;;;;;;;;;;6275812;22;20377;-90
2022/09/24 06:16:14;;;;;;;15.60;13.90;;;;;;;;;;6245097;22;20392;-90
2022/09/24 06:18:41;;;;;;;13.43;12.23;;;;;;;;;;6276300;22;20337;-90
2022/09/24 06:21:08;;;;;;;13.50;12.40;;;;;;;;;;6253281;22;20395;-89
2022/09/24 06:23:34;;;;;;;15.00;13.40;;;;;;;;;;6252553;22;20393;-88
2022/09/24 06:26:01;;;;;;;15.00;13.70;;;;;;;;;;6243733;22;20434;-89
2022/09/24 06:28:27;;;;;;;13.47;12.37;;;;;;;;;;6244929;22;20392;-89
2022/09/24 06:30:53;;;;;;;13.63;12.43;;;;;;;;;;6268685;22;20875;-88
2022/09/24 06:36:09;;;;;;;15.73;13.57;;;;;;;;;;6268002;22;20372;-89
2022/09/24 06:38:35;;;;;;;18.37;13.77;;;;;;;;;;6243310;22;20911;-90
2022/09/24 06:41:02;;;;;;;18.57;14.67;;;;;;;;;;6266457;22;20786;-89
2022/09/24 06:43:31;;;;;;;16.73;15.23;;;;;;;;;;6267975;22;20452;-89
2022/09/24 06:45:57;;;;;;;15.50;13.90;;;;;;;;;;6266211;22;20497;-89
2022/09/24 06:48:25;;;;;;;15.90;14.50;;;;;;;;;;6241532;22;20422;-90
2022/09/24 06:50:51;;;;;;;14.43;13.23;;;;;;;;;;6240263;22;20487;-89
2022/09/24 06:53:17;;;;;;;14.20;12.80;;;;;;;;;;6242148;22;20400;-89
2022/09/24 06:55:47;;;;;;;14.70;13.30;;;;;;;;;;6267311;22;20759;-89
2022/09/24 06:58:15;;;;;;;14.60;13.40;;;;;;;;;;6269146;22;20369;-89
2022/09/24 07:00:41;;;;;;;16.50;14.97;;;;;;;;;;6234315;22;20403;-89
2022/09/24 07:03:11;;;;;;;15.87;14.20;;;;;;;;;;6243624;22;20516;-89
2022/09/24 07:05:37;;;;;;;14.57;13.37;;;;;;;;;;6243874;22;20448;-89
2022/09/24 07:08:03;;;;;;;18.23;15.23;;;;;;;;;;6250146;22;20694;-89
2022/09/24 07:10:30;;;;;;;16.63;15.07;;;;;;;;;;6266968;22;20381;-88
2022/09/24 07:12:56;;;;;;;19.33;14.87;;;;;;;;;;6259005;22;20361;-91
2022/09/24 07:15:22;;;;;;;16.20;14.53;;;;;;;;;;6255520;22;20439;-89
2022/09/24 07:17:48;;;;;;;15.50;14.20;;;;;;;;;;6278680;22;20693;-89
2022/09/24 07:20:33;;;;;;;17.27;15.33;;;;;;;;;;6256062;22;20388;-90
2022/09/24 07:22:59;;;;;;;16.23;14.53;;;;;;;;;;6257251;22;20809;-89
2022/09/24 07:25:31;;;;;;;15.40;14.03;;;;;;;;;;6258317;22;20407;-90
2022/09/24 07:28:04;;;;;;;15.57;14.10;;;;;;;;;;6254359;22;20376;-91
2022/09/24 07:30:34;;;;;;;16.10;14.60;;;;;;;;;;6252064;22;20396;-91
2022/09/24 07:33:03;;;;;;;15.83;14.37;;;;;;;;;;6248878;22;20416;-91
2022/09/24 07:35:36;;;;;;;16.33;14.77;;;;;;;;;;6257068;22;20497;-90
2022/09/24 07:38:11;;;;;;;16.63;14.00;;;;;;;;;;6293383;22;20341;-91
2022/09/24 07:43:48;;;;;;;15.43;14.07;;;;;;;;;;6234356;22;20417;-90
2022/09/24 07:46:34;;;;;;;14.77;13.00;;;;;;;;;;6259002;22;20442;-89
2022/09/24 07:49:30;;;;;;;16.17;14.73;;;;;;;;;;6256725;22;20384;-91
2022/09/24 07:52:11;;;;;;;14.40;13.20;;;;;;;;;;6252247;22;20464;-90
2022/09/24 07:54:37;;;;;;;15.30;14.03;;;;;;;;;;6250501;22;20574;-90
2022/09/24 07:57:08;;;;;;;15.07;13.33;;;;;;;;;;6274032;22;20370;-89
2022/09/24 07:59:34;;;;;;;15.27;13.00;;;;;;;;;;6249532;22;20357;-89
2022/09/24 08:02:00;;;;;;;15.13;13.63;;;;;;;;;;6274608;22;20581;-89
2022/09/24 08:04:26;;;;;;;15.10;13.70;;;;;;;;;;6244059;23;20990;-90
2022/09/24 08:06:52;;;;;;;15.87;14.23;;;;;;;;;;6269028;22;20376;-91
2022/09/24 08:09:18;;;;;;;14.67;13.47;;;;;;;;;;6273865;22;20369;-89
2022/09/24 08:11:44;;;;;;;15.07;13.57;;;;;;;;;;6276182;22;20450;-88
2022/09/24 08:14:10;;;;;;;17.67;15.33;;;;;;;;;;6276521;22;20979;-88
2022/09/24 08:16:38;;;;;;;15.80;14.20;;;;;;;;;;6272256;22;20385;-89
2022/09/24 08:19:04;;;;;;;16.33;14.70;;;;;;;;;;6273967;22;20855;-90
2022/09/24 08:21:31;;;;;;;13.87;12.57;;;;;;;;;;6271314;22;20376;-89
2022/09/24 08:23:57;;;;;;;14.73;13.40;;;;;;;;;;6273140;22;20670;-88
2022/09/24 08:26:23;;;;;;;13.37;12.07;;;;;;;;;;6245615;22;20395;-88
2022/09/24 08:28:50;;;;;;;15.20;13.77;;;;;;;;;;6274344;22;20372;-89
2022/09/24 08:31:16;;;;;;;15.10;13.80;;;;;;;;;;6271911;22;20373;-90
2022/09/24 08:34:15;;;;;;;20.10;14.00;;;;;;;;;;6278780;22;20360;-90
2022/09/24 08:36:41;;;;;;;15.27;13.90;;;;;;;;;;6244438;22;20396;-91
2022/09/24 08:39:12;;;;;;;14.80;13.70;;;;;;;;;;6256513;22;20423;-90
2022/09/24 08:41:53;;;;;;;16.37;14.77;;;;;;;;;;6278418;22;20424;-90
2022/09/24 08:47:21;;;;;;;15.23;13.83;;;;;;;;;;6278499;22;20345;-87
2022/09/24 08:47:30;;;;;;;16.60;15.10;;;;;;;;;;6277401;22;20375;-89
2022/09/24 08:50:02;;;;;;;16.70;15.20;;;;;;;;;;6249633;22;20154;-91
2022/09/24 08:52:47;;;;;;;15.80;14.27;;;;;;;;;;6273558;22;20372;-87
2022/09/24 08:55:28;;;;;;;15.10;13.77;;;;;;;;;;6272314;22;20495;-86
2022/09/24 08:57:58;;;;;;;16.63;14.70;;;;;;;;;;6266570;22;20352;-87
2022/09/24 09:00:25;;;;;;;16.77;15.37;;;;;;;;;;6240350;22;20423;-88
2022/09/24 09:02:57;;;;;;;13.87;12.67;;;;;;;;;;6237855;22;21137;-88
2022/09/24 09:05:26;;;;;;;14.57;13.07;;;;;;;;;;6242836;22;20423;-87
2022/09/24 09:07:57;;;;;;;15.30;12.97;;;;;;;;;;6243951;22;20381;-87
2022/09/24 09:10:27;;;;;;;13.30;12.17;;;;;;;;;;6272832;22;20361;-88
2022/09/24 09:13:00;;;;;;;15.00;13.57;;;;;;;;;;6244311;22;20373;-88
2022/09/24 09:15:31;;;;;;;14.60;13.30;;;;;;;;;;6246124;22;20417;-87
2022/09/24 09:18:12;;;;;;;14.70;13.20;;;;;;;;;;6270922;22;20457;-87
2022/09/24 09:20:40;;;;;;;15.90;14.30;;;;;;;;;;6244094;22;20388;-87
2022/09/24 09:23:19;;;;;;;14.83;13.43;;;;;;;;;;6274331;22;20360;-87
2022/09/24 09:25:51;;;;;;;14.93;13.50;;;;;;;;;;6272417;22;20368;-89
2022/09/24 09:28:22;;;;;;;15.57;14.00;;;;;;;;;;6262961;22;20349;-86
2022/09/24 09:31:06;;;;;;;16.80;15.30;;;;;;;;;;6266234;22;20539;-87
2022/09/24 09:33:44;;;;;;;14.90;13.60;;;;;;;;;;6280609;22;20341;-88
2022/09/24 09:36:16;;;;;;;14.87;13.47;;;;;;;;;;6248519;22;20388;-87
2022/09/24 09:39:01;;;;;;;17.37;13.83;;;;;;;;;;6246258;22;20369;-89
2022/09/24 09:41:36;;;;;;;14.60;13.33;;;;;;;;;;6270197;22;20368;-87
2022/09/24 09:44:11;;;;;;;14.30;13.00;;;;;;;;;;6246404;22;20372;-87
2022/09/24 09:46:40;;;;;;;14.10;12.67;;;;;;;;;;6244638;22;20757;-87
2022/09/24 09:49:07;;;;;;;13.50;12.20;;;;;;;;;;6272661;22;20447;-86
2022/09/24 09:51:38;;;;;;;12.20;10.47;;;;;;;;;;6243239;22;20399;-86
2022/09/24 09:54:04;;;;;;;10.83;9.93;;;;;;;;;;6272615;22;20408;-88
2022/09/24 09:56:33;;;;;;;10.47;9.57;;;;;;;;;;6271906;22;20447;-86
2022/09/24 09:59:02;;;;;;;10.43;9.33;;;;;;;;;;6249911;22;20397;-89
2022/09/24 10:01:32;;;;;;;10.40;9.40;;;;;;;;;;6250988;22;20427;-89
2022/09/24 10:04:09;;;;;;;11.40;10.57;;;;;;;;;;6263956;22;20515;-88
2022/09/24 10:06:35;;;;;;;12.30;10.37;;;;;;;;;;6299272;22;20468;-92
2022/09/24 10:09:20;;;;;;;8.83;8.00;;;;;;;;;;6273675;22;20396;-93
2022/09/24 10:11:46;;;;;;;10.60;9.80;;;;;;;;;;6267504;22;20389;-91
2022/09/24 10:14:13;;;;;;;10.57;9.60;;;;;;;;;;6264422;22;20483;-90
2022/09/24 10:16:44;;;;;;;10.63;9.73;;;;;;;;;;6269564;22;20428;-91
2022/09/24 10:19:29;;;;;;;10.63;9.77;;;;;;;;;;6269901;22;20377;-90
2022/09/24 10:22:30;;;;;;;9.37;8.60;;;;;;;;;;6258022;22;20392;-94
2022/09/24 10:31:52;;;;;;;8.10;7.60;;;;;;;;;;6292647;22;20364;-93
2022/09/24 10:34:27;;;;;;;9.50;8.90;;;;;;;;;;6289563;22;20454;-91
2022/09/24 11:16:27;;;;;;;11.63;10.73;;;;;;;;;;6235474;22;20421;-88
2022/09/24 11:19:32;;;;;;;;;;;;;;;;;;;;;
2022/09/24 11:22:13;;;;;;;19.23;17.40;;;;;;;;;;6228097;22;20446;-90
2022/09/24 11:25:03;;;;;;;12.67;11.53;;;;;;;;;;6200513;23;20592;-93
2022/09/24 11:27:49;;;;;;;12.60;11.63;;;;;;;;;;6239178;23;20393;-93
2022/09/24 11:30:33;;;;;;;13.43;12.37;;;;;;;;;;6236940;23;20477;-89
2022/09/24 11:33:26;;;;;;;13.40;12.40;;;;;;;;;;6213614;23;20567;-92
2022/09/24 11:36:32;;;;;;;12.90;11.90;;;;;;;;;;6210681;23;20414;-88
2022/09/24 11:39:20;;;;;;;12.60;11.70;;;;;;;;;;6212878;23;20371;-92
2022/09/24 11:42:15;;;;;;;13.60;12.40;;;;;;;;;;6213777;23;20457;-91
2022/09/24 11:45:10;;;;;;;;;;;;;;;;;;;;;
2022/09/24 11:50:27;;;;;;;12.90;11.80;;;;;;;;;;6264160;23;20429;-92
2022/09/24 11:55:56;;;;;;;15.70;14.07;;;;;;;;;;6248185;22;20447;-91
2022/09/24 12:18:09;;;;;;;19.10;17.60;;;;;;;;;;6223938;22;20449;-91
2022/09/24 12:21:22;;;;;;;;;;;;;;;;;;;;;
2022/09/24 12:23:53;;;;;;;17.10;15.70;;;;;;;;;;6230489;23;20389;-90
2022/09/24 12:34:58;;;;;;;11.37;10.47;;;;;;;;;;6259863;23;20424;-90
2022/09/24 12:37:37;;;;;;;11.67;10.53;;;;;;;;;;6262413;22;20354;-92
2022/09/24 12:40:37;;;;;;;9.50;8.80;;;;;;;;;;6244874;22;20396;-91
2022/09/24 12:43:08;;;;;;;9.97;9.07;;;;;;;;;;6184384;23;20456;-89
2022/09/24 12:45:37;;;;;;;10.80;9.40;;;;;;;;;;6262222;23;20393;-92
2022/09/24 12:48:03;;;;;;;8.57;7.83;;;;;;;;;;6234902;23;20400;-91
2022/09/24 12:50:32;;;;;;;10.20;7.90;;;;;;;;;;6230076;23;20397;-90
2022/09/24 12:52:58;;;;;;;8.63;8.03;;;;;;;;;;6225829;23;20412;-90
2022/09/24 12:55:26;;;;;;;9.03;8.43;;;;;;;;;;6227645;23;20937;-88
2022/09/24 12:58:02;;;;;;;8.37;7.87;;;;;;;;;;6222008;23;20431;-90
2022/09/24 13:00:44;;;;;;;7.80;7.30;;;;;;;;;;6226853;23;20913;-92
2022/09/24 13:03:29;;;;;;;9.00;8.20;;;;;;;;;;6220266;23;20365;-92
2022/09/24 13:05:58;;;;;;;9.87;9.07;;;;;;;;;;6249305;23;20380;-92
2022/09/24 13:08:28;;;;;;;8.87;8.27;;;;;;;;;;6223642;23;20731;-90
2022/09/24 13:10:55;;;;;;;11.30;9.70;;;;;;;;;;6225469;23;20397;-91
2022/09/24 13:13:32;;;;;;;9.07;8.57;;;;;;;;;;6222083;23;20381;-92
2022/09/24 13:15:59;;;;;;;8.37;7.60;;;;;;;;;;6223875;23;20440;-89
2022/09/24 13:18:25;;;;;;;8.87;8.17;;;;;;;;;;6251400;23;20893;-90
2022/09/24 13:21:03;;;;;;;8.37;7.87;;;;;;;;;;6258333;23;20428;-90
2022/09/24 13:23:32;;;;;;;8.83;8.23;;;;;;;;;;6242654;22;20374;-91
2022/09/24 13:26:01;;;;;;;7.83;7.33;;;;;;;;;;6243555;22;20421;-91
2022/09/24 13:28:40;;;;;;;9.10;8.40;;;;;;;;;;6241340;23;20405;-92
2022/09/24 13:31:30;;;;;;;9.43;8.63;;;;;;;;;;6259969;23;20366;-90
2022/09/24 13:34:02;;;;;;;9.63;8.93;;;;;;;;;;6212677;23;20407;-91
2022/09/24 13:36:31;;;;;;;10.27;9.40;;;;;;;;;;6230356;23;20401;-89
2022/09/24 13:39:04;;;;;;;10.13;9.40;;;;;;;;;;6263520;23;20350;-91
2022/09/24 13:41:59;;;;;;;;;;;;;;;;;;;;;
2022/09/24 13:44:25;;;;;;;9.90;9.10;;;;;;;;;;6252459;23;20405;-91
2022/09/24 13:47:10;;;;;;;10.70;10.00;;;;;;;;;;6252530;23;20374;-93
2022/09/24 13:49:48;;;;;;;10.80;10.10;;;;;;;;;;6227638;23;20757;-93
2022/09/24 13:52:32;;;;;;;10.93;10.03;;;;;;;;;;6227873;23;20381;-91
2022/09/24 13:55:08;;;;;;;8.60;8.00;;;;;;;;;;6255312;23;20887;-92
2022/09/24 13:57:44;;;;;;;10.27;9.40;;;;;;;;;;6227574;23;20428;-91
2022/09/24 14:00:46;;;;;;;11.50;10.40;;;;;;;;;;6254424;23;21276;-92
2022/09/24 14:03:35;;;;;;;11.37;10.57;;;;;;;;;;6231171;23;20397;-91
2022/09/24 14:06:26;;;;;;;11.33;10.40;;;;;;;;;;6236588;23;20741;-91
2022/09/24 14:08:52;;;;;;;11.00;10.00;;;;;;;;;;6232110;23;20409;-93
2022/09/24 14:11:26;;;;;;;10.47;9.67;;;;;;;;;;6222860;23;20434;-91
2022/09/24 14:13:53;;;;;;;12.90;11.70;;;;;;;;;;6253365;23;20370;-88
2022/09/24 14:16:23;;;;;;;12.20;11.17;;;;;;;;;;6235635;23;20472;-88
2022/09/24 14:19:02;;;;;;;12.27;11.00;;;;;;;;;;6232515;23;20394;-87
2022/09/24 14:21:33;;;;;;;12.10;11.10;;;;;;;;;;6231783;23;20393;-88
2022/09/24 14:24:02;;;;;;;12.60;11.50;;;;;;;;;;6221162;23;20754;-91
2022/09/24 14:26:45;;;;;;;12.40;11.30;;;;;;;;;;6247027;23;20373;-89
2022/09/24 14:29:24;;;;;;;12.70;11.70;;;;;;;;;;6216053;23;20456;-89
2022/09/24 14:31:52;;;;;;;11.70;10.80;;;;;;;;;;6212502;23;20427;-91
2022/09/24 14:34:31;;;;;;;13.33;12.13;;;;;;;;;;6241714;23;20455;-88
2022/09/24 14:37:00;;;;;;;12.63;11.53;;;;;;;;;;6213527;23;20402;-89
2022/09/24 14:39:28;;;;;;;11.93;11.03;;;;;;;;;;6242321;23;20408;-89
2022/09/24 14:41:54;;;;;;;12.43;11.40;;;;;;;;;;6214311;23;20422;-90
2022/09/24 14:44:22;;;;;;;12.77;11.77;;;;;;;;;;6216645;23;20401;-91
2022/09/24 14:46:50;;;;;;;12.63;11.50;;;;;;;;;;6239113;23;20742;-89
2022/09/24 14:49:19;;;;;;;12.57;11.50;;;;;;;;;;6213457;23;20516;-89
2022/09/24 14:51:59;;;;;;;12.63;11.63;;;;;;;;;;6221125;23;20409;-90
2022/09/24 14:54:27;;;;;;;13.13;12.13;;;;;;;;;;6213189;23;20861;-90
2022/09/24 14:56:53;;;;;;;13.87;12.57;;;;;;;;;;6239112;23;20378;-90
2022/09/24 14:59:28;;;;;;;13.20;12.00;;;;;;;;;;6225096;23;20373;-89
2022/09/24 15:02:36;;;;;;;13.20;12.00;;;;;;;;;;6207187;23;20408;-91
2022/09/24 15:05:07;;;;;;;14.13;12.73;;;;;;;;;;6184385;23;20385;-90
2022/09/24 15:07:34;;;;;;;12.30;11.30;;;;;;;;;;6231994;23;20366;-89
2022/09/24 15:10:02;;;;;;;14.23;13.00;;;;;;;;;;6237593;23;20386;-94
2022/09/24 15:12:30;;;;;;;14.53;13.23;;;;;;;;;;6228215;23;20381;-89
2022/09/24 15:15:03;;;;;;;14.00;12.70;;;;;;;;;;6221806;23;20413;-94
2022/09/24 15:17:31;;;;;;;13.40;12.20;;;;;;;;;;6219448;23;20393;-92
2022/09/24 15:20:05;;;;;;;15.00;13.70;;;;;;;;;;6219028;23;20385;-90
2022/09/24 15:22:35;;;;;;;14.80;13.60;;;;;;;;;;6227414;23;20389;-94
2022/09/24 15:25:04;;;;;;;13.37;11.97;;;;;;;;;;6242543;23;20374;-94
2022/09/24 15:27:31;;;;;;;15.83;14.53;;;;;;;;;;6235992;23;20428;-92
2022/09/24 15:30:03;;;;;;;15.20;13.73;;;;;;;;;;6227337;23;20637;-92
2022/09/24 15:32:40;;;;;;;16.40;13.60;;;;;;;;;;6224716;23;20413;-93
2022/09/24 15:35:08;;;;;;;17.43;15.83;;;;;;;;;;6229846;23;20409;-90
2022/09/24 15:37:37;;;;;;;15.87;14.50;;;;;;;;;;6243036;23;20432;-92
2022/09/24 15:40:55;;;;;;;;;;;;;;;;;;;;;
2022/09/24 15:43:24;;;;;;;14.87;13.57;;;;;;;;;;6141700;23;20460;-92
2022/09/24 15:45:55;;;;;;;16.37;14.87;;;;;;;;;;6114380;23;20396;-93
2022/09/24 15:48:31;;;;;;;15.20;14.00;;;;;;;;;;6184282;23;20408;-93
2022/09/24 15:51:21;;;;;;;16.77;15.17;;;;;;;;;;6258621;23;20361;-93
2022/09/24 15:56:51;;;;;;;16.50;14.90;;;;;;;;;;6235557;23;20382;-91
2022/09/24 15:59:43;;;;;;;16.80;14.93;;;;;;;;;;6227537;23;20984;-91
2022/09/24 16:02:22;;;;;;;18.23;16.63;;;;;;;;;;6250933;23;20718;-91
2022/09/24 16:04:51;;;;;;;16.73;15.17;;;;;;;;;;6229035;23;20522;-93
2022/09/24 16:07:28;;;;;;;16.17;14.67;;;;;;;;;;6229631;23;20916;-94
2022/09/24 16:10:03;;;;;;;15.63;14.23;;;;;;;;;;6234111;23;20388;-94
2022/09/24 16:12:35;;;;;;;15.47;14.07;;;;;;;;;;6226951;23;20438;-93
2022/09/24 16:15:01;;;;;;;15.93;14.53;;;;;;;;;;6232806;23;20426;-92
2022/09/24 16:17:32;;;;;;;18.90;17.20;;;;;;;;;;6228073;23;20514;-92
2022/09/24 16:19:58;;;;;;;23.37;21.00;;;;;;;;;;6236217;23;20430;-90
2022/09/24 16:22:34;;;;;;;29.93;26.83;;;;;;;;;;6238202;23;20557;-92
2022/09/24 16:27:49;;;;;;;35.63;31.83;;;;;;;;;;6252588;23;20377;-91
2022/09/24 16:30:18;;;;;;;34.63;30.90;;;;;;;;;;6198508;23;20453;-92
2022/09/24 16:33:12;;;;;;;36.13;32.30;;;;;;;;;;6190744;23;20398;-93
2022/09/24 16:35:39;;;;;;;31.00;27.80;;;;;;;;;;6218499;23;20426;-92
2022/09/24 16:38:15;;;;;;;27.17;24.23;;;;;;;;;;6201458;23;20405;-88
2022/09/24 16:41:05;;;;;;;27.30;24.40;;;;;;;;;;6199372;23;20370;-91
2022/09/24 16:43:36;;;;;;;23.60;21.13;;;;;;;;;;6232817;23;20355;-93
2022/09/24 16:46:25;;;;;;;24.43;20.90;;;;;;;;;;6206704;23;20402;-92
2022/09/24 16:48:53;;;;;;;21.73;19.73;;;;;;;;;;6188128;23;20382;-89